Weather at Los Olas Center Heliport [CLOSED]

Public forecast

Using degrees Fahrenheit for public forecast. Weather courtesy of forecast.io.

Closest aviation weather report (METAR) to Los Olas Center Heliport

Closest report is Fort Lauderdale Hollywood International Airport, 2.9 nm (5.3 km) SSW. Retrieved 2020/09/19 14:53 UTC (39 minutes ago):

KFLL 191453Z 32004KT 10SM FEW023 FEW250 31/24 A2992 RMK AO2 SLP132 T03110244 53011

Closest aviation forecast (TAF) to Los Olas Center Heliport

Closest forecast is Fort Lauderdale Hollywood International Airport, 2.9 nm (5.3 km) SSW. Retrieved 2020/09/19 12:25 UTC (3 hours ago):

TAF KFLL 191120Z 1912/2018 VRB05KT P6SM SCT025 SCT050 FM191800 10010KT P6SM VCTS SCT025CB BKN050 FM192300 VRB05KT P6SM VCSH FEW025 SCT080 BKN120 FM200200 VRB03KT P6SM FEW025 SCT250 FM201400 29005KT P6SM VCSH SCT025 SCT050